Terminal Aerodrome Forecast
Issued by NWS Paducah, KY

Home | Current Version | Previous Version | Text Only | Print | Product List | Glossary On
Versions: 1 2 3 4 5 6 7 8 9 10 11 12 13 14 15 16
375
FTUS43 KPAH 161120
TAFPAH
TAF
KPAH 161120Z 1612/1712 17004KT P6SM SCT030 BKN150
     FM161600 20006KT P6SM SCT045 BKN250=

USA.gov is the U.S. government's official web portal to all federal, state and local government web resources and services.